Time;durP1;ratioP1;P1;durP2;ratioP2;P2;SDS_P1;SDS_P2;PMS_P1;PMS_P2;Temp;Humidity;BMP_temperature;BMP_pressure;BME280_temperature;BME280_humidity;BME280_pressure;Samples;Min_cycle;Max_cycle;Signal;HPM_P1;HPM_P2
2020/12/24 00:00:48;;;;;;;28.35;18.55;;;7.00;99.90;;;;;;5059793;28;20111;-82
2020/12/24 00:03:14;;;;;;;29.45;18.60;;;7.00;99.90;;;;;;5051718;28;20044;-82
2020/12/24 00:05:39;;;;;;;28.48;18.50;;;7.00;99.90;;;;;;5062071;28;20028;-83
2020/12/24 00:08:05;;;;;;;26.83;17.35;;;6.90;99.90;;;;;;5051624;28;20025;-83
2020/12/24 00:10:31;;;;;;;34.40;21.58;;;6.90;99.90;;;;;;5051133;28;20035;-80
2020/12/24 00:12:57;;;;;;;36.90;21.75;;;6.80;99.90;;;;;;5051560;28;20021;-80
2020/12/24 00:15:24;;;;;;;38.28;23.13;;;6.80;99.90;;;;;;5050529;28;20139;-80
2020/12/24 00:17:49;;;;;;;38.30;24.80;;;6.80;99.90;;;;;;5051211;28;20469;-80
2020/12/24 00:20:16;;;;;;;34.63;23.23;;;6.80;99.90;;;;;;5051111;28;20119;-80
2020/12/24 00:22:42;;;;;;;33.40;21.25;;;6.80;99.90;;;;;;5067238;28;20116;-80
2020/12/24 00:25:08;;;;;;;36.03;23.35;;;6.80;99.90;;;;;;5052949;28;20068;-80
2020/12/24 00:27:34;;;;;;;37.42;23.42;;;6.70;99.90;;;;;;5051194;28;20442;-80
2020/12/24 00:30:00;;;;;;;36.42;23.45;;;6.70;99.90;;;;;;5069086;28;20033;-81
2020/12/24 00:32:25;;;;;;;34.58;22.38;;;6.70;99.90;;;;;;5045423;28;20072;-81
2020/12/24 00:34:51;;;;;;;39.05;23.75;;;6.70;99.90;;;;;;5037495;28;20045;-78
2020/12/24 00:37:16;;;;;;;35.08;22.42;;;6.70;99.90;;;;;;5036209;28;20112;-81
2020/12/24 00:39:42;;;;;;;34.88;21.80;;;6.70;99.90;;;;;;5048170;28;20121;-80
2020/12/24 00:42:08;;;;;;;37.72;22.63;;;6.70;99.90;;;;;;5049212;28;20037;-80
2020/12/24 00:44:33;;;;;;;37.25;22.67;;;6.70;99.90;;;;;;5027080;28;20039;-78
2020/12/24 00:46:59;;;;;;;37.55;23.05;;;6.70;99.90;;;;;;5024247;28;20430;-78
2020/12/24 00:49:24;;;;;;;37.60;23.65;;;6.70;99.90;;;;;;5049757;28;20039;-79
2020/12/24 00:51:50;;;;;;;37.75;23.38;;;6.70;99.90;;;;;;5031973;28;20025;-79
2020/12/24 00:54:16;;;;;;;34.10;20.63;;;6.70;99.90;;;;;;5034579;28;20484;-78
2020/12/24 00:56:41;;;;;;;34.92;21.10;;;6.70;99.90;;;;;;5033520;28;20042;-78
2020/12/24 00:59:07;;;;;;;35.63;22.10;;;6.70;99.90;;;;;;5033710;28;20021;-79
2020/12/24 01:01:32;;;;;;;34.17;20.10;;;6.70;99.90;;;;;;5036328;28;20036;-79
2020/12/24 01:03:59;;;;;;;35.35;19.88;;;6.70;99.90;;;;;;5030139;28;20022;-79
2020/12/24 01:06:25;;;;;;;40.15;22.95;;;6.70;99.90;;;;;;5053607;28;20052;-79
2020/12/24 01:08:51;;;;;;;39.95;23.63;;;6.70;99.90;;;;;;5034414;28;20481;-78
2020/12/24 01:11:16;;;;;;;37.05;21.63;;;6.70;99.90;;;;;;5052177;28;20028;-78
2020/12/24 01:13:42;;;;;;;35.13;18.80;;;6.70;99.90;;;;;;5032684;28;20432;-79
2020/12/24 01:16:09;;;;;;;34.53;20.02;;;6.60;99.90;;;;;;5050856;28;20033;-78
2020/12/24 01:18:34;;;;;;;28.17;15.35;;;6.60;99.90;;;;;;5034486;28;20075;-79
2020/12/24 01:21:00;;;;;;;28.50;16.35;;;6.50;99.90;;;;;;5051912;28;20029;-79
2020/12/24 01:23:25;;;;;;;27.63;15.70;;;6.50;99.90;;;;;;5046408;28;20099;-79
2020/12/24 01:25:51;;;;;;;29.10;14.32;;;6.50;99.90;;;;;;5034635;28;20052;-79
2020/12/24 01:28:16;;;;;;;25.15;14.43;;;6.40;99.90;;;;;;5034000;28;20051;-79
2020/12/24 01:30:43;;;;;;;29.20;14.32;;;6.40;99.90;;;;;;5051103;28;20025;-79
2020/12/24 01:33:08;;;;;;;23.70;14.02;;;6.40;99.90;;;;;;5032305;28;20549;-79
2020/12/24 01:35:34;;;;;;;22.42;12.65;;;6.40;99.90;;;;;;5043934;28;20124;-79
2020/12/24 01:37:59;;;;;;;21.98;12.23;;;6.30;99.90;;;;;;5034470;28;20082;-80
2020/12/24 01:40:25;;;;;;;24.73;12.38;;;6.30;99.90;;;;;;5033543;28;20029;-79
2020/12/24 01:42:51;;;;;;;23.50;12.65;;;6.30;99.90;;;;;;5050502;28;20044;-79
2020/12/24 01:45:16;;;;;;;24.38;13.70;;;6.30;99.90;;;;;;5032288;28;20549;-78
2020/12/24 01:47:42;;;;;;;22.90;13.32;;;6.30;99.90;;;;;;5050290;28;20032;-78
2020/12/24 01:50:08;;;;;;;17.67;10.38;;;6.20;99.90;;;;;;5041015;28;20033;-80
2020/12/24 01:52:36;;;;;;;16.83;11.43;;;6.20;99.90;;;;;;5036905;28;20492;-79
2020/12/24 01:55:07;;;;;;;19.98;9.90;;;6.20;99.90;;;;;;5033778;28;20037;-79
2020/12/24 01:57:33;;;;;;;17.45;8.10;;;6.20;99.90;;;;;;5051188;28;20172;-79
2020/12/24 01:59:59;;;;;;;16.35;8.05;;;6.10;99.90;;;;;;5031970;28;20044;-79
2020/12/24 02:02:25;;;;;;;12.88;8.15;;;6.10;99.90;;;;;;5032924;28;20021;-79
2020/12/24 02:04:51;;;;;;;11.65;7.35;;;6.00;99.90;;;;;;5029620;28;20036;-79
2020/12/24 02:07:18;;;;;;;10.70;7.03;;;5.90;99.90;;;;;;5051280;28;20078;-79
2020/12/24 02:09:48;;;;;;;10.40;6.00;;;5.90;99.90;;;;;;5033344;28;20033;-79
2020/12/24 02:12:15;;;;;;;12.83;5.80;;;5.90;99.90;;;;;;5033964;28;20486;-79
2020/12/24 02:14:41;;;;;;;8.73;4.25;;;5.90;99.90;;;;;;5032063;28;20324;-79
2020/12/24 02:17:08;;;;;;;8.23;5.07;;;5.70;99.90;;;;;;5031660;28;20033;-78
2020/12/24 02:19:34;;;;;;;6.28;4.03;;;5.70;99.90;;;;;;5036450;28;20017;-79
2020/12/24 02:22:00;;;;;;;8.35;4.40;;;5.70;99.90;;;;;;5040248;28;20444;-80
2020/12/24 02:24:27;;;;;;;6.28;3.47;;;5.70;99.90;;;;;;5033210;28;20032;-80
2020/12/24 02:26:52;;;;;;;4.75;3.53;;;5.60;99.90;;;;;;5051036;28;20078;-80
2020/12/24 02:29:18;;;;;;;15.05;3.45;;;5.50;99.90;;;;;;5027066;28;20033;-80
2020/12/24 02:31:44;;;;;;;6.55;3.85;;;5.50;99.90;;;;;;5031612;28;20096;-80
2020/12/24 02:34:10;;;;;;;5.40;3.47;;;5.50;99.90;;;;;;5031424;28;20033;-80
2020/12/24 02:36:35;;;;;;;5.18;3.30;;;5.50;99.90;;;;;;5045509;28;20043;-80
2020/12/24 02:39:01;;;;;;;10.10;4.10;;;5.40;99.90;;;;;;5031254;28;20044;-80
2020/12/24 02:41:26;;;;;;;6.80;4.28;;;5.40;99.90;;;;;;5033333;28;20034;-80
2020/12/24 02:43:52;;;;;;;12.40;4.15;;;5.40;99.90;;;;;;5030916;28;20025;-80
2020/12/24 02:46:17;;;;;;;6.05;4.05;;;5.40;99.90;;;;;;5032286;28;20028;-80
2020/12/24 02:48:43;;;;;;;8.77;3.53;;;5.40;99.90;;;;;;5048367;28;20474;-80
2020/12/24 02:51:10;;;;;;;8.23;3.92;;;5.40;99.90;;;;;;5046676;28;20029;-81
2020/12/24 02:53:36;;;;;;;5.95;3.33;;;5.30;99.90;;;;;;5050628;28;20025;-80
2020/12/24 02:56:02;;;;;;;9.18;3.20;;;5.30;99.90;;;;;;5032610;28;20037;-79
2020/12/24 02:58:28;;;;;;;9.40;2.80;;;5.20;99.90;;;;;;5031493;28;20032;-79
2020/12/24 03:00:53;;;;;;;6.35;3.03;;;5.20;99.90;;;;;;5035332;28;20033;-80
2020/12/24 03:03:20;;;;;;;6.57;4.00;;;5.20;99.90;;;;;;5048331;28;20025;-80
2020/12/24 03:05:46;;;;;;;5.53;3.10;;;5.20;99.90;;;;;;5053529;28;20033;-80
2020/12/24 03:08:12;;;;;;;4.68;3.00;;;5.20;99.90;;;;;;5032145;28;20025;-80
2020/12/24 03:10:37;;;;;;;10.65;3.40;;;5.20;99.90;;;;;;5050262;28;20029;-80
2020/12/24 03:13:03;;;;;;;9.25;3.35;;;5.20;99.90;;;;;;5032125;28;20032;-81
2020/12/24 03:15:29;;;;;;;3.22;2.22;;;5.10;99.90;;;;;;5031085;28;20531;-80
2020/12/24 03:17:54;;;;;;;9.35;3.42;;;5.20;99.90;;;;;;5032787;28;20025;-80
2020/12/24 03:20:20;;;;;;;7.25;3.25;;;5.10;99.90;;;;;;5040971;28;20480;-80
2020/12/24 03:22:45;;;;;;;12.45;3.75;;;5.10;99.90;;;;;;5033766;28;20838;-80
2020/12/24 03:25:11;;;;;;;15.40;3.97;;;5.10;99.90;;;;;;5031948;28;20481;-80
2020/12/24 03:27:37;;;;;;;8.43;2.33;;;5.10;99.90;;;;;;5049712;28;20028;-80
2020/12/24 03:30:03;;;;;;;22.77;4.70;;;5.10;99.90;;;;;;5031085;28;20456;-80
2020/12/24 03:32:29;;;;;;;9.18;3.33;;;5.00;99.90;;;;;;5030664;28;20041;-80
2020/12/24 03:34:54;;;;;;;10.25;2.65;;;5.00;99.90;;;;;;5034950;28;20044;-80
2020/12/24 03:37:20;;;;;;;11.13;3.10;;;5.00;99.90;;;;;;5031258;28;20094;-80
2020/12/24 03:39:45;;;;;;;21.98;2.92;;;4.90;99.90;;;;;;5006949;28;20112;-80
2020/12/24 03:42:11;;;;;;;15.32;3.13;;;4.90;99.90;;;;;;5007166;28;20037;-80
2020/12/24 03:44:37;;;;;;;12.35;2.67;;;4.90;99.90;;;;;;4989554;28;20057;-79
2020/12/24 03:47:03;;;;;;;6.72;2.95;;;4.90;99.90;;;;;;5012647;28;20386;-79
2020/12/24 03:49:29;;;;;;;10.23;2.95;;;4.90;99.90;;;;;;5006403;28;20081;-79
2020/12/24 03:51:54;;;;;;;7.68;3.17;;;4.80;99.90;;;;;;5019103;28;20112;-79
2020/12/24 03:54:20;;;;;;;19.98;2.47;;;4.90;99.90;;;;;;5017423;28;20045;-79
2020/12/24 03:56:45;;;;;;;14.35;2.78;;;4.80;99.90;;;;;;5007310;28;20136;-79
2020/12/24 03:59:11;;;;;;;19.02;2.95;;;4.80;99.90;;;;;;5005605;28;20145;-79
2020/12/24 04:01:36;;;;;;;14.15;2.20;;;4.80;99.90;;;;;;5006916;28;20398;-79
2020/12/24 04:04:02;;;;;;;6.97;2.45;;;4.70;99.90;;;;;;4991832;28;20390;-79
2020/12/24 04:06:27;;;;;;;12.85;2.17;;;4.70;99.90;;;;;;5015732;28;20041;-79
2020/12/24 04:08:53;;;;;;;9.02;1.83;;;4.70;99.90;;;;;;5021042;28;20068;-80
2020/12/24 04:11:19;;;;;;;7.15;1.33;;;4.60;99.90;;;;;;5026187;28;20033;-80
2020/12/24 04:13:45;;;;;;;4.30;0.90;;;4.50;99.90;;;;;;5046187;28;20053;-79
2020/12/24 04:16:11;;;;;;;5.85;1.65;;;4.40;99.90;;;;;;5029471;28;20033;-78
2020/12/24 04:18:36;;;;;;;4.90;0.77;;;4.40;99.90;;;;;;5055837;28;20025;-79
2020/12/24 04:21:02;;;;;;;5.57;0.90;;;4.30;99.90;;;;;;5052606;28;20061;-80
2020/12/24 04:23:28;;;;;;;8.02;1.30;;;4.40;99.90;;;;;;5030930;28;20129;-79
2020/12/24 04:25:53;;;;;;;3.10;1.15;;;4.40;99.90;;;;;;5031618;28;20025;-79
2020/12/24 04:28:19;;;;;;;1.38;0.68;;;4.40;99.90;;;;;;5029694;28;20044;-79
2020/12/24 04:30:44;;;;;;;2.85;1.02;;;4.40;99.90;;;;;;5030149;28;20494;-80
2020/12/24 04:33:11;;;;;;;1.17;0.85;;;4.30;99.90;;;;;;5039264;28;20051;-79
2020/12/24 04:35:37;;;;;;;1.52;0.90;;;4.40;99.90;;;;;;5046710;28;20091;-80
2020/12/24 04:38:03;;;;;;;1.42;1.02;;;4.40;99.90;;;;;;5047291;28;20072;-79
2020/12/24 04:40:29;;;;;;;5.43;1.50;;;4.40;99.90;;;;;;5064347;28;20039;-80
2020/12/24 04:42:56;;;;;;;1.35;1.02;;;4.40;99.90;;;;;;5054981;28;20017;-80
2020/12/24 04:45:22;;;;;;;2.15;1.20;;;4.30;99.90;;;;;;5046015;28;20021;-80
2020/12/24 04:47:55;;;;;;;2.83;1.15;;;4.40;99.90;;;;;;5047490;28;20461;-79
2020/12/24 04:50:24;;;;;;;6.05;1.27;;;4.40;99.90;;;;;;5059233;28;20038;-80
2020/12/24 04:52:50;;;;;;;3.75;1.13;;;4.40;99.90;;;;;;5044830;28;20022;-80
2020/12/24 04:55:17;;;;;;;2.30;1.55;;;4.40;99.90;;;;;;5045173;28;20044;-79
2020/12/24 04:57:45;;;;;;;2.20;1.63;;;4.30;99.90;;;;;;5046599;28;20079;-79
2020/12/24 05:00:11;;;;;;;2.38;1.40;;;4.30;99.90;;;;;;5047312;28;20017;-79
2020/12/24 05:02:36;;;;;;;4.57;1.98;;;4.30;99.90;;;;;;5046625;28;20484;-79
2020/12/24 05:05:03;;;;;;;4.72;1.98;;;4.30;99.90;;;;;;5059296;28;20025;-80
2020/12/24 05:07:29;;;;;;;6.50;3.03;;;4.40;99.90;;;;;;5048843;28;20049;-79
2020/12/24 05:09:55;;;;;;;6.10;2.85;;;4.30;99.90;;;;;;5048921;28;20048;-79
2020/12/24 05:12:31;;;;;;;5.53;2.90;;;4.30;99.90;;;;;;5045281;28;20021;-80
2020/12/24 05:14:57;;;;;;;5.82;3.30;;;4.30;99.90;;;;;;5042997;28;20033;-80
2020/12/24 05:17:23;;;;;;;6.57;2.67;;;4.30;99.90;;;;;;5045635;28;20115;-79
2020/12/24 05:20:04;;;;;;;5.20;2.80;;;4.20;99.90;;;;;;5045525;28;20033;-80
2020/12/24 05:22:30;;;;;;;5.47;3.13;;;4.10;99.90;;;;;;5046963;28;20127;-80
2020/12/24 05:25:19;;;;;;;3.95;2.08;;;4.10;99.90;;;;;;5047022;28;20072;-80
2020/12/24 05:27:57;;;;;;;3.60;1.85;;;4.10;99.90;;;;;;5048698;28;20424;-79
2020/12/24 05:30:27;;;;;;;3.88;1.90;;;4.10;99.90;;;;;;5045289;28;20043;-79
2020/12/24 05:32:53;;;;;;;2.45;1.52;;;4.00;99.90;;;;;;5054323;28;20497;-79
2020/12/24 05:35:25;;;;;;;3.38;1.73;;;3.90;99.90;;;;;;5041082;28;20052;-79
2020/12/24 05:37:52;;;;;;;4.22;1.92;;;4.00;99.90;;;;;;5048846;28;20500;-79
2020/12/24 05:40:25;;;;;;;4.50;2.20;;;3.90;99.90;;;;;;5034260;28;20032;-79
2020/12/24 05:42:56;;;;;;;4.20;1.80;;;4.00;99.90;;;;;;5051305;28;20529;-79
2020/12/24 05:45:25;;;;;;;3.30;1.98;;;4.00;99.90;;;;;;5031428;28;20025;-79
2020/12/24 05:48:07;;;;;;;4.03;1.98;;;3.90;99.90;;;;;;5048549;28;20033;-79
2020/12/24 05:50:33;;;;;;;;;;;4.00;99.90;;;;;;5052554;28;20028;-79
2020/12/24 05:53:03;;;;;;;9.45;2.97;;;3.90;99.90;;;;;;5033706;28;19921;-79
2020/12/24 05:55:29;;;;;;;6.38;3.28;;;4.00;99.90;;;;;;5033732;28;20036;-79
2020/12/24 05:57:58;;;;;;;4.55;2.50;;;4.00;99.90;;;;;;5033001;28;20492;-79
2020/12/24 06:00:31;;;;;;;8.15;3.05;;;3.90;99.90;;;;;;5031217;28;20378;-80
2020/12/24 06:03:08;;;;;;;11.45;4.53;;;3.90;99.90;;;;;;5031910;28;20033;-80
2020/12/24 06:05:45;;;;;;;11.20;4.53;;;3.90;99.90;;;;;;5061376;28;20031;-80
2020/12/24 06:08:21;;;;;;;10.13;4.75;;;3.90;99.90;;;;;;5051498;28;20435;-80
2020/12/24 06:10:46;;;;;;;5.00;2.70;;;4.00;99.90;;;;;;5033725;28;20021;-80
2020/12/24 06:13:16;;;;;;;15.20;4.75;;;3.90;99.90;;;;;;5032818;28;20542;-80
2020/12/24 06:15:47;;;;;;;12.07;4.50;;;4.00;99.90;;;;;;5040354;28;20033;-80
2020/12/24 06:18:14;;;;;;;7.38;3.95;;;4.00;99.90;;;;;;5049159;28;20547;-80
2020/12/24 06:20:48;;;;;;;8.68;4.10;;;4.00;99.90;;;;;;5053609;28;20477;-80
2020/12/24 06:23:15;;;;;;;9.85;4.72;;;4.00;99.90;;;;;;5032581;28;20042;-80
2020/12/24 06:25:41;;;;;;;8.68;4.50;;;4.00;99.90;;;;;;5050555;28;20021;-80
2020/12/24 06:28:11;;;;;;;9.80;4.25;;;4.10;99.90;;;;;;5030953;28;20022;-80
2020/12/24 06:30:38;;;;;;;10.82;4.05;;;4.10;99.90;;;;;;5029355;28;20394;-80
2020/12/24 06:33:03;;;;;;;11.65;3.28;;;4.10;99.90;;;;;;5048897;28;20375;-80
2020/12/24 06:35:36;;;;;;;9.98;4.03;;;4.10;99.90;;;;;;5043010;28;20040;-80
2020/12/24 06:38:04;;;;;;;8.50;4.53;;;4.10;99.90;;;;;;5026842;28;20029;-80
2020/12/24 06:40:36;;;;;;;12.00;3.88;;;4.10;99.90;;;;;;5032864;28;20075;-80
2020/12/24 06:43:05;;;;;;;9.63;3.65;;;4.10;99.90;;;;;;5036549;28;20027;-80
2020/12/24 06:45:39;;;;;;;7.65;3.97;;;4.10;99.90;;;;;;5030744;28;20033;-80
2020/12/24 06:48:15;;;;;;;8.43;3.72;;;4.20;99.90;;;;;;5030800;28;20035;-80
2020/12/24 06:50:42;;;;;;;6.90;4.35;;;4.10;99.90;;;;;;5041275;28;20060;-80
2020/12/24 06:53:23;;;;;;;11.32;4.07;;;4.20;99.90;;;;;;5032696;28;20124;-80
2020/12/24 06:56:21;;;;;;;9.18;3.47;;;4.20;99.90;;;;;;5032248;28;20139;-80
2020/12/24 06:58:55;;;;;;;8.05;3.38;;;4.20;99.90;;;;;;5030588;28;20032;-80
2020/12/24 07:01:27;;;;;;;6.32;3.10;;;4.20;99.90;;;;;;5043088;28;20111;-80
2020/12/24 07:04:03;;;;;;;6.13;2.78;;;4.20;99.90;;;;;;5034941;28;20029;-79
2020/12/24 07:06:45;;;;;;;6.45;2.80;;;4.20;99.90;;;;;;5044850;28;20087;-80
2020/12/24 07:09:31;;;;;;;4.63;2.38;;;4.20;99.90;;;;;;5029166;28;20032;-80
2020/12/24 07:11:57;;;;;;;7.65;2.22;;;4.20;99.90;;;;;;5041207;28;20478;-79
2020/12/24 07:14:24;;;;;;;7.15;2.10;;;4.20;99.90;;;;;;5043490;28;20096;-80
2020/12/24 07:16:53;;;;;;;7.35;2.58;;;4.20;99.90;;;;;;5027330;28;20028;-80
2020/12/24 07:19:20;;;;;;;6.63;2.33;;;4.20;99.90;;;;;;5048524;28;20069;-80
2020/12/24 07:21:48;;;;;;;10.27;2.90;;;4.20;99.90;;;;;;5066965;28;20056;-80
2020/12/24 07:24:15;;;;;;;15.68;3.28;;;4.20;99.90;;;;;;5040688;28;20377;-79
2020/12/24 07:26:42;;;;;;;6.53;2.45;;;4.20;99.90;;;;;;5047470;28;20029;-80
2020/12/24 07:29:11;;;;;;;18.88;3.40;;;4.20;99.90;;;;;;5047515;28;20064;-79
2020/12/24 07:31:38;;;;;;;10.70;2.85;;;4.20;99.90;;;;;;5030843;28;20559;-80
2020/12/24 07:34:03;;;;;;;6.28;2.83;;;4.20;99.90;;;;;;5050751;28;20056;-80
2020/12/24 07:36:30;;;;;;;6.80;3.13;;;4.20;99.90;;;;;;5046996;28;20044;-80
2020/12/24 07:38:55;;;;;;;9.48;3.38;;;4.20;99.90;;;;;;5042289;28;20092;-79
2020/12/24 07:41:22;;;;;;;8.82;2.72;;;4.20;99.90;;;;;;5041123;28;20028;-80
2020/12/24 07:43:47;;;;;;;8.35;3.20;;;4.20;99.90;;;;;;5049394;28;20025;-80
2020/12/24 07:46:16;;;;;;;11.85;3.40;;;4.20;99.90;;;;;;5047043;28;20374;-80
2020/12/24 07:48:43;;;;;;;8.00;2.88;;;4.20;99.90;;;;;;5045965;28;20547;-80
2020/12/24 07:51:09;;;;;;;6.47;2.55;;;4.30;99.90;;;;;;5038141;28;20137;-80
2020/12/24 07:53:35;;;;;;;8.40;2.85;;;4.30;99.90;;;;;;5044448;28;20110;-80
2020/12/24 07:56:05;;;;;;;9.55;2.65;;;4.30;99.90;;;;;;5056945;28;20039;-80
2020/12/24 07:58:31;;;;;;;7.60;3.05;;;4.30;99.90;;;;;;5032865;28;20017;-81
2020/12/24 08:01:01;;;;;;;12.77;2.55;;;4.30;99.90;;;;;;5042506;28;20327;-80
2020/12/24 08:03:26;;;;;;;12.25;3.35;;;4.30;99.90;;;;;;5044759;28;20046;-80
2020/12/24 08:06:01;;;;;;;7.85;2.67;;;4.30;99.90;;;;;;5049608;28;20040;-83
2020/12/24 08:08:29;;;;;;;5.85;2.38;;;4.30;99.90;;;;;;5050797;28;20100;-83
2020/12/24 08:10:55;;;;;;;12.02;2.53;;;4.40;99.90;;;;;;5047322;28;20060;-80
2020/12/24 08:13:21;;;;;;;11.85;2.00;;;4.40;99.90;;;;;;5046461;28;20457;-79
2020/12/24 08:15:49;;;;;;;8.98;2.03;;;4.40;99.90;;;;;;5046177;28;20112;-80
2020/12/24 08:18:20;;;;;;;6.95;2.22;;;4.40;99.90;;;;;;5044549;28;20596;-80
2020/12/24 08:21:00;;;;;;;5.45;2.00;;;4.40;99.90;;;;;;5035361;28;20406;-80
2020/12/24 08:23:34;;;;;;;9.38;2.13;;;4.40;99.90;;;;;;5046928;28;20025;-79
2020/12/24 08:26:00;;;;;;;5.60;1.52;;;4.50;99.90;;;;;;5041036;28;20574;-80
2020/12/24 08:28:26;;;;;;;7.03;1.70;;;4.40;99.90;;;;;;5033572;28;20033;-80
2020/12/24 08:30:53;;;;;;;6.80;1.75;;;4.40;99.90;;;;;;5029450;28;20028;-80
2020/12/24 08:33:19;;;;;;;4.30;1.65;;;4.50;99.90;;;;;;5030182;28;20059;-79
2020/12/24 08:35:45;;;;;;;7.40;2.13;;;4.50;99.90;;;;;;5031596;28;20044;-80
2020/12/24 08:38:12;;;;;;;6.40;2.53;;;4.50;99.90;;;;;;5032660;28;20078;-80
2020/12/24 08:40:38;;;;;;;3.22;1.40;;;4.50;99.90;;;;;;5018359;28;20032;-81
2020/12/24 08:43:07;;;;;;;8.70;2.50;;;4.60;99.90;;;;;;5018462;28;20029;-81
2020/12/24 08:45:33;;;;;;;7.07;2.35;;;4.50;99.90;;;;;;5029312;28;20037;-80
2020/12/24 08:47:59;;;;;;;4.07;1.98;;;4.60;99.90;;;;;;5033967;28;20091;-79
2020/12/24 08:50:36;;;;;;;7.20;2.13;;;4.60;99.90;;;;;;5022360;28;20029;-80
2020/12/24 08:53:05;;;;;;;7.80;2.13;;;4.60;99.90;;;;;;5026391;28;20033;-79
2020/12/24 08:55:31;;;;;;;3.33;1.90;;;4.60;99.90;;;;;;5045709;28;20059;-80
2020/12/24 08:57:57;;;;;;;7.30;2.17;;;4.70;99.90;;;;;;5032299;28;20083;-80
2020/12/24 09:00:24;;;;;;;13.50;2.85;;;4.70;99.90;;;;;;5021309;28;20020;-80
2020/12/24 09:02:50;;;;;;;11.43;2.97;;;4.70;99.90;;;;;;5049130;28;20022;-80
2020/12/24 09:05:23;;;;;;;14.38;4.10;;;4.70;99.90;;;;;;5029278;28;20037;-80
2020/12/24 09:07:49;;;;;;;10.35;3.28;;;4.70;99.90;;;;;;5043178;28;20606;-80
2020/12/24 09:10:20;;;;;;;17.70;6.22;;;4.80;99.90;;;;;;5044407;28;20032;-80
2020/12/24 09:12:46;;;;;;;19.58;5.38;;;4.80;99.90;;;;;;5037412;28;20049;-80
2020/12/24 09:15:16;;;;;;;14.40;6.28;;;4.80;99.90;;;;;;5033928;28;20037;-80
2020/12/24 09:17:52;;;;;;;17.95;7.75;;;5.00;99.90;;;;;;5028524;28;20384;-80
2020/12/24 09:20:25;;;;;;;15.23;6.43;;;5.00;99.90;;;;;;5034031;28;20022;-80
2020/12/24 09:22:54;;;;;;;25.92;6.03;;;5.00;99.90;;;;;;5033631;28;20052;-80
2020/12/24 09:25:39;;;;;;;14.70;5.75;;;5.00;99.90;;;;;;5031581;28;20449;-80
2020/12/24 09:28:16;;;;;;;12.88;6.28;;;5.10;99.90;;;;;;5045650;28;20064;-80
2020/12/24 09:30:42;;;;;;;17.85;5.72;;;5.10;99.90;;;;;;5031824;28;20025;-78
2020/12/24 09:33:07;;;;;;;20.10;5.53;;;5.00;99.90;;;;;;5070000;28;20057;-80
2020/12/24 09:35:33;;;;;;;17.85;6.40;;;5.00;99.90;;;;;;5069580;28;20043;-80
2020/12/24 09:38:00;;;;;;;16.13;4.85;;;5.20;99.90;;;;;;5052371;28;20494;-79
2020/12/24 09:40:26;;;;;;;14.32;4.97;;;5.20;99.90;;;;;;5067876;28;20060;-80
2020/12/24 09:42:51;;;;;;;13.68;5.15;;;5.20;99.90;;;;;;5053234;28;20033;-79
2020/12/24 09:45:17;;;;;;;11.80;4.57;;;5.30;99.90;;;;;;5057099;28;20024;-80
2020/12/24 09:47:44;;;;;;;12.05;4.57;;;5.30;99.90;;;;;;5065156;28;20024;-80
2020/12/24 09:50:10;;;;;;;15.13;5.10;;;5.20;99.90;;;;;;5066031;28;20028;-79
2020/12/24 09:52:36;;;;;;;17.10;5.10;;;5.20;99.90;;;;;;5046838;28;20381;-80
2020/12/24 09:55:02;;;;;;;10.07;4.85;;;5.30;99.90;;;;;;5051488;28;20449;-79
2020/12/24 09:57:28;;;;;;;18.90;4.85;;;5.30;99.90;;;;;;5054866;28;20024;-79
2020/12/24 09:59:54;;;;;;;12.68;5.68;;;5.20;99.90;;;;;;5055893;28;20531;-80
2020/12/24 10:02:19;;;;;;;17.42;6.00;;;5.30;99.90;;;;;;5053251;28;20033;-80
2020/12/24 10:04:45;;;;;;;19.85;5.78;;;5.30;99.90;;;;;;5051292;28;20029;-79
2020/12/24 10:07:11;;;;;;;16.50;5.95;;;5.30;99.90;;;;;;5051065;28;20028;-79
2020/12/24 10:09:36;;;;;;;18.73;5.53;;;5.40;99.90;;;;;;5049967;28;20024;-79
2020/12/24 10:12:02;;;;;;;20.70;7.45;;;5.30;99.90;;;;;;5064626;28;20056;-80
2020/12/24 10:14:28;;;;;;;16.13;7.00;;;5.30;99.90;;;;;;5051790;28;20474;-80
2020/12/24 10:16:53;;;;;;;15.63;8.18;;;5.40;99.90;;;;;;5052263;28;20040;-80
2020/12/24 10:19:19;;;;;;;21.42;7.57;;;5.40;99.90;;;;;;5049152;28;20191;-80
2020/12/24 10:21:44;;;;;;;18.38;7.13;;;5.30;99.90;;;;;;5051856;28;20127;-79
2020/12/24 10:24:10;;;;;;;24.08;8.02;;;5.40;99.90;;;;;;5072920;28;20028;-80
2020/12/24 10:26:38;;;;;;;24.80;7.43;;;5.50;99.90;;;;;;5055720;28;20019;-80
2020/12/24 10:29:04;;;;;;;18.40;7.78;;;5.60;99.90;;;;;;5061103;28;20152;-79
2020/12/24 10:31:29;;;;;;;18.63;6.93;;;5.60;99.90;;;;;;5068603;28;20107;-80
2020/12/24 10:33:55;;;;;;;18.25;7.50;;;5.60;99.90;;;;;;5050229;28;20127;-80
2020/12/24 10:36:25;;;;;;;21.92;7.10;;;5.60;99.90;;;;;;5050424;28;20044;-79
2020/12/24 10:38:51;;;;;;;13.57;5.47;;;5.60;99.90;;;;;;5051540;28;20024;-80
2020/12/24 10:41:17;;;;;;;18.63;6.35;;;5.60;99.90;;;;;;5051150;28;20102;-79
2020/12/24 10:43:43;;;;;;;17.10;6.68;;;5.70;99.90;;;;;;5053503;28;20492;-80
2020/12/24 10:46:15;;;;;;;19.10;7.75;;;5.60;99.90;;;;;;5052868;28;20021;-80
2020/12/24 10:48:41;;;;;;;15.20;6.95;;;5.60;99.90;;;;;;5045948;28;20029;-80
2020/12/24 10:51:08;;;;;;;18.80;7.93;;;5.70;99.90;;;;;;5049460;28;20036;-79
2020/12/24 10:53:35;;;;;;;11.88;6.10;;;5.70;99.90;;;;;;5062333;28;20029;-79
2020/12/24 10:56:00;;;;;;;26.05;5.88;;;5.70;99.90;;;;;;5046628;28;20110;-80
2020/12/24 10:58:26;;;;;;;18.00;7.68;;;5.80;99.90;;;;;;5047717;28;20032;-79
2020/12/24 11:00:51;;;;;;;15.65;5.13;;;5.70;99.90;;;;;;5047573;28;20119;-80
2020/12/24 11:03:19;;;;;;;12.50;5.28;;;5.80;99.90;;;;;;5046648;28;20110;-79
2020/12/24 11:05:45;;;;;;;24.33;5.65;;;5.90;99.90;;;;;;5048627;28;20088;-79
2020/12/24 11:08:10;;;;;;;19.95;6.82;;;5.90;99.90;;;;;;5053160;28;20033;-79
2020/12/24 11:10:36;;;;;;;17.48;6.22;;;6.00;99.90;;;;;;5047069;28;20028;-80
2020/12/24 11:13:01;;;;;;;17.00;6.82;;;6.00;99.90;;;;;;5048720;28;20180;-79
2020/12/24 11:15:27;;;;;;;12.23;5.43;;;6.00;99.90;;;;;;5049121;28;20037;-79
2020/12/24 11:17:52;;;;;;;22.80;5.78;;;6.00;99.90;;;;;;5047420;28;20029;-80
2020/12/24 11:20:18;;;;;;;14.13;6.18;;;6.00;99.90;;;;;;5047820;28;20025;-79
2020/12/24 11:22:43;;;;;;;10.50;5.90;;;6.10;99.90;;;;;;5049302;28;20112;-79
2020/12/24 11:25:09;;;;;;;14.55;5.28;;;6.10;99.90;;;;;;5048350;28;20040;-79
2020/12/24 11:27:35;;;;;;;22.02;7.13;;;6.20;99.90;;;;;;5048790;28;20032;-79
2020/12/24 11:30:00;;;;;;;18.23;6.78;;;6.20;99.90;;;;;;5047829;28;20037;-78
2020/12/24 11:32:26;;;;;;;34.97;6.97;;;6.20;99.90;;;;;;5055205;28;20540;-80
2020/12/24 11:34:51;;;;;;;14.77;6.13;;;6.30;99.90;;;;;;5063785;28;20091;-80
2020/12/24 11:37:17;;;;;;;14.68;5.20;;;6.30;99.90;;;;;;5061558;28;20375;-79
2020/12/24 11:39:42;;;;;;;21.55;7.15;;;6.30;99.90;;;;;;5051820;28;20024;-79
2020/12/24 11:42:08;;;;;;;17.42;5.68;;;6.30;99.90;;;;;;5048692;28;20029;-79
2020/12/24 11:44:34;;;;;;;20.58;5.55;;;6.30;99.90;;;;;;5064329;28;20021;-78
2020/12/24 11:46:59;;;;;;;15.75;5.90;;;6.30;99.90;;;;;;5066580;28;20025;-79
2020/12/24 11:49:25;;;;;;;23.17;5.93;;;6.30;99.90;;;;;;5056314;28;20032;-79
2020/12/24 11:51:51;;;;;;;18.95;5.40;;;6.20;99.90;;;;;;5034981;28;20042;-79
2020/12/24 11:54:16;;;;;;;21.15;5.72;;;6.20;99.90;;;;;;5059115;28;20025;-79
2020/12/24 11:56:42;;;;;;;25.33;6.88;;;6.20;99.90;;;;;;5054626;28;20029;-79
2020/12/24 11:59:08;;;;;;;29.60;6.95;;;6.20;99.90;;;;;;5047673;28;20029;-79
2020/12/24 12:01:33;;;;;;;20.27;6.50;;;6.30;99.90;;;;;;5048886;28;20087;-78
2020/12/24 12:04:00;;;;;;;22.42;6.10;;;6.30;99.90;;;;;;5056430;28;20059;-78
2020/12/24 12:06:26;;;;;;;20.25;5.68;;;6.30;99.90;;;;;;5064271;28;20032;-78
2020/12/24 12:08:51;;;;;;;17.02;5.68;;;6.40;99.90;;;;;;5047575;28;20047;-78
2020/12/24 12:11:18;;;;;;;17.45;5.97;;;6.40;99.90;;;;;;5048556;28;20025;-81
2020/12/24 12:13:47;;;;;;;27.13;6.97;;;6.50;99.90;;;;;;5056070;28;20036;-80
2020/12/24 12:16:13;;;;;;;24.00;6.43;;;6.50;99.90;;;;;;5052003;28;20116;-79
2020/12/24 12:18:39;;;;;;;21.95;6.05;;;6.70;99.90;;;;;;5061460;28;20493;-78
2020/12/24 12:21:05;;;;;;;30.50;6.45;;;6.70;99.90;;;;;;5061338;28;20032;-78
2020/12/24 12:23:31;;;;;;;21.73;6.22;;;6.70;99.90;;;;;;5047001;28;20033;-78
2020/12/24 12:25:56;;;;;;;21.30;6.65;;;6.60;99.90;;;;;;5047988;28;20033;-78
2020/12/24 12:28:22;;;;;;;25.92;7.57;;;6.60;99.90;;;;;;5048436;28;20025;-78
2020/12/24 12:30:48;;;;;;;29.25;7.47;;;6.70;99.90;;;;;;5052705;28;20574;-78
2020/12/24 12:33:13;;;;;;;28.60;8.02;;;6.60;99.90;;;;;;5057459;28;20049;-78
2020/12/24 12:35:39;;;;;;;28.33;7.95;;;6.60;99.90;;;;;;5052653;28;20119;-81
2020/12/24 12:38:04;;;;;;;32.88;7.95;;;6.60;99.90;;;;;;5061706;28;20060;-81
2020/12/24 12:40:30;;;;;;;31.02;7.57;;;6.60;99.90;;;;;;5055359;28;20028;-79
2020/12/24 12:42:56;;;;;;;29.27;6.90;;;6.60;99.90;;;;;;5066234;28;20085;-79
2020/12/24 12:45:21;;;;;;;29.70;6.90;;;6.60;99.90;;;;;;5048963;28;20465;-79
2020/12/24 12:47:47;;;;;;;32.13;5.75;;;6.60;99.90;;;;;;5048044;28;20428;-79
2020/12/24 12:50:14;;;;;;;15.02;4.15;;;6.70;99.90;;;;;;5053667;28;20040;-79